Alliance, NE (69301)

5:38 PM MDT on August 29, 2016 (GMT -0600)
Alliance | | Change Station

Elev 3999 ft 42.11 °N, 102.88 °W | Updated 2 seconds ago

Light Rain
Light Rain
77.2 °F
Feels Like 79 °F
N
10.4
Wind Variable Wind from SSE

Today
High -- | Low -- °F
--% Chance of Precip.
Yesterday
High -- | Low -- °F
Precip. -- in
Pressure 30.16 in
Visibility 7.0 miles
Clouds Mostly Cloudy 7000 ft
Heat Index 79 °F
Dew Point 59 °F
Humidity 53%
Rainfall in
Snow Depth Not available.
6:14 AM 7:29 PM
Waning Crescent, 6% visible
METAR KAIA 292253Z AUTO 14016G28KT 7SM -RA BKN070 21/13 A3024 RMK AO2 PK WND 11035/2241 RAB52 SLP213 P0003 T02110133
Pressure 30.16 in
Visibility 7.0 miles
Clouds Mostly Cloudy 7000 ft
Heat Index 79 °F
Dew Point 59 °F
Humidity 53%
Rainfall in
Snow Depth Not available.
6:14 AM 7:29 PM
Waning Crescent, 6% visible
METAR KAIA 292253Z AUTO 14016G28KT 7SM -RA BKN070 21/13 A3024 RMK AO2 PK WND 11035/2241 RAB52 SLP213 P0003 T02110133

10-Day Weather Forecast

Almanac

Astronomy

Aug. 29, 2016 Rise Set
Actual Time
Civil Twilight
Nautical Twilight
Astronomical Twilight
Moon
Length of Visible Light
Length of Day
Tomorrow will be .
, % of the Moon is Illuminated

Today's Extremes

State Highs State Lows

Community

WunderPhotos

Upload Photos

1,935,695 photos uploaded!

WunderBlog® & News

Nearby

Air Quality

  Air Quality AQ Index Pollutant
Not available.

Snow Depth

Station Depth Elevation

Earthquake Activity

City Distance Mag. Time & Date
Minimum magnitude displayed is 2.5.

Coastal Water Temperatures

Place Temperature

Stations

Nearby Weather Stations

Station Location Temp. Windchill Dew Point Humidity Wind Precip. Elev Updated Type
                   

Watches & Warnings

There are currently no watches in effect.